sensor_id;sensor_type;location;lat;lon;timestamp;P1;durP1;ratioP1;P2;durP2;ratioP2
77524;SDS011;66638;50.050;21.124;2023-03-05T00:00:14;10.30;;;4.40;;
77524;SDS011;66638;50.050;21.124;2023-03-05T00:03:25;9.30;;;4.90;;
77524;SDS011;66638;50.050;21.124;2023-03-05T00:06:12;9.50;;;4.70;;
77524;SDS011;66638;50.050;21.124;2023-03-05T00:08:59;11.90;;;4.60;;
77524;SDS011;66638;50.050;21.124;2023-03-05T00:14:34;8.10;;;4.30;;
77524;SDS011;66638;50.050;21.124;2023-03-05T00:20:09;9.70;;;4.30;;
77524;SDS011;66638;50.050;21.124;2023-03-05T00:25:43;10.60;;;4.50;;
77524;SDS011;66638;50.050;21.124;2023-03-05T00:28:32;8.50;;;4.70;;
77524;SDS011;66638;50.050;21.124;2023-03-05T00:31:21;12.50;;;5.20;;
77524;SDS011;66638;50.050;21.124;2023-03-05T00:34:13;11.20;;;5.80;;
77524;SDS011;66638;50.050;21.124;2023-03-05T00:37:01;10.50;;;6.10;;
77524;SDS011;66638;50.050;21.124;2023-03-05T00:39:48;11.10;;;5.30;;
77524;SDS011;66638;50.050;21.124;2023-03-05T00:42:35;12.80;;;5.50;;
77524;SDS011;66638;50.050;21.124;2023-03-05T00:45:24;8.50;;;5.00;;
77524;SDS011;66638;50.050;21.124;2023-03-05T00:48:12;10.50;;;5.50;;
77524;SDS011;66638;50.050;21.124;2023-03-05T00:51:00;10.70;;;6.30;;
77524;SDS011;66638;50.050;21.124;2023-03-05T00:56:35;10.10;;;4.90;;
77524;SDS011;66638;50.050;21.124;2023-03-05T00:59:22;12.20;;;5.20;;
77524;SDS011;66638;50.050;21.124;2023-03-05T01:02:09;12.80;;;5.80;;
77524;SDS011;66638;50.050;21.124;2023-03-05T01:04:57;10.20;;;5.10;;
77524;SDS011;66638;50.050;21.124;2023-03-05T01:07:44;10.00;;;5.80;;
77524;SDS011;66638;50.050;21.124;2023-03-05T01:13:19;10.50;;;5.90;;
77524;SDS011;66638;50.050;21.124;2023-03-05T01:16:08;12.90;;;6.20;;
77524;SDS011;66638;50.050;21.124;2023-03-05T01:21:42;19.80;;;7.90;;
77524;SDS011;66638;50.050;21.124;2023-03-05T01:24:30;12.00;;;7.10;;
77524;SDS011;66638;50.050;21.124;2023-03-05T01:27:18;11.60;;;6.10;;
77524;SDS011;66638;50.050;21.124;2023-03-05T01:32:53;10.90;;;6.10;;
77524;SDS011;66638;50.050;21.124;2023-03-05T01:35:41;17.50;;;6.40;;
77524;SDS011;66638;50.050;21.124;2023-03-05T01:38:28;8.70;;;5.90;;
77524;SDS011;66638;50.050;21.124;2023-03-05T01:41:16;8.80;;;5.70;;
77524;SDS011;66638;50.050;21.124;2023-03-05T01:44:04;11.00;;;4.90;;
77524;SDS011;66638;50.050;21.124;2023-03-05T01:46:51;11.10;;;4.70;;
77524;SDS011;66638;50.050;21.124;2023-03-05T01:52:26;8.60;;;3.70;;
77524;SDS011;66638;50.050;21.124;2023-03-05T01:55:16;8.70;;;4.40;;
77524;SDS011;66638;50.050;21.124;2023-03-05T01:58:10;10.30;;;4.00;;
77524;SDS011;66638;50.050;21.124;2023-03-05T02:00:58;11.20;;;4.80;;
77524;SDS011;66638;50.050;21.124;2023-03-05T02:03:46;8.20;;;3.90;;
77524;SDS011;66638;50.050;21.124;2023-03-05T02:06:34;7.60;;;3.80;;
77524;SDS011;66638;50.050;21.124;2023-03-05T02:12:10;9.00;;;3.80;;
77524;SDS011;66638;50.050;21.124;2023-03-05T02:14:58;6.70;;;4.00;;
77524;SDS011;66638;50.050;21.124;2023-03-05T02:17:46;9.30;;;4.30;;
77524;SDS011;66638;50.050;21.124;2023-03-05T02:23:40;7.30;;;3.90;;
77524;SDS011;66638;50.050;21.124;2023-03-05T02:26:28;7.80;;;3.50;;
77524;SDS011;66638;50.050;21.124;2023-03-05T02:29:16;9.30;;;4.20;;
77524;SDS011;66638;50.050;21.124;2023-03-05T02:32:06;9.90;;;3.80;;
77524;SDS011;66638;50.050;21.124;2023-03-05T02:34:55;11.80;;;4.00;;
77524;SDS011;66638;50.050;21.124;2023-03-05T02:37:42;8.00;;;4.10;;
77524;SDS011;66638;50.050;21.124;2023-03-05T02:40:29;10.30;;;4.30;;
77524;SDS011;66638;50.050;21.124;2023-03-05T02:43:17;8.70;;;4.30;;
77524;SDS011;66638;50.050;21.124;2023-03-05T02:46:04;10.10;;;4.40;;
77524;SDS011;66638;50.050;21.124;2023-03-05T02:48:52;12.20;;;3.80;;
77524;SDS011;66638;50.050;21.124;2023-03-05T02:51:39;8.50;;;3.80;;
77524;SDS011;66638;50.050;21.124;2023-03-05T02:54:27;7.00;;;3.90;;
77524;SDS011;66638;50.050;21.124;2023-03-05T02:57:15;8.50;;;3.80;;
77524;SDS011;66638;50.050;21.124;2023-03-05T03:00:03;9.40;;;3.90;;
77524;SDS011;66638;50.050;21.124;2023-03-05T03:02:51;7.50;;;3.90;;
77524;SDS011;66638;50.050;21.124;2023-03-05T03:05:39;8.70;;;3.90;;
77524;SDS011;66638;50.050;21.124;2023-03-05T03:08:26;8.60;;;3.80;;
77524;SDS011;66638;50.050;21.124;2023-03-05T03:11:13;8.90;;;4.80;;
77524;SDS011;66638;50.050;21.124;2023-03-05T03:14:00;8.00;;;3.70;;
77524;SDS011;66638;50.050;21.124;2023-03-05T03:16:48;9.00;;;4.00;;
77524;SDS011;66638;50.050;21.124;2023-03-05T03:19:36;7.60;;;3.90;;
77524;SDS011;66638;50.050;21.124;2023-03-05T03:22:24;11.40;;;4.70;;
77524;SDS011;66638;50.050;21.124;2023-03-05T03:25:15;10.10;;;5.00;;
77524;SDS011;66638;50.050;21.124;2023-03-05T03:28:04;10.90;;;5.00;;
77524;SDS011;66638;50.050;21.124;2023-03-05T03:30:51;13.00;;;6.60;;
77524;SDS011;66638;50.050;21.124;2023-03-05T03:33:38;17.40;;;8.10;;
77524;SDS011;66638;50.050;21.124;2023-03-05T03:36:25;12.70;;;6.80;;
77524;SDS011;66638;50.050;21.124;2023-03-05T03:39:12;10.60;;;6.90;;
77524;SDS011;66638;50.050;21.124;2023-03-05T03:42:01;9.80;;;5.30;;
77524;SDS011;66638;50.050;21.124;2023-03-05T03:44:48;10.20;;;5.60;;
77524;SDS011;66638;50.050;21.124;2023-03-05T03:47:36;11.00;;;5.40;;
77524;SDS011;66638;50.050;21.124;2023-03-05T03:50:24;9.40;;;5.80;;
77524;SDS011;66638;50.050;21.124;2023-03-05T03:53:11;15.70;;;6.60;;
77524;SDS011;66638;50.050;21.124;2023-03-05T03:56:00;12.40;;;5.50;;
77524;SDS011;66638;50.050;21.124;2023-03-05T03:58:50;10.10;;;5.00;;
77524;SDS011;66638;50.050;21.124;2023-03-05T04:01:38;9.50;;;5.60;;
77524;SDS011;66638;50.050;21.124;2023-03-05T04:07:14;9.60;;;5.00;;
77524;SDS011;66638;50.050;21.124;2023-03-05T04:10:01;11.60;;;5.40;;
77524;SDS011;66638;50.050;21.124;2023-03-05T04:12:50;10.80;;;5.50;;
77524;SDS011;66638;50.050;21.124;2023-03-05T04:15:37;9.60;;;5.50;;
77524;SDS011;66638;50.050;21.124;2023-03-05T04:18:24;13.30;;;6.10;;
77524;SDS011;66638;50.050;21.124;2023-03-05T04:21:11;13.00;;;6.70;;
77524;SDS011;66638;50.050;21.124;2023-03-05T04:23:59;12.70;;;5.90;;
77524;SDS011;66638;50.050;21.124;2023-03-05T04:26:46;9.60;;;5.50;;
77524;SDS011;66638;50.050;21.124;2023-03-05T04:29:33;11.20;;;5.10;;
77524;SDS011;66638;50.050;21.124;2023-03-05T04:32:20;13.90;;;5.50;;
77524;SDS011;66638;50.050;21.124;2023-03-05T04:35:11;10.50;;;5.00;;
77524;SDS011;66638;50.050;21.124;2023-03-05T04:37:59;15.60;;;5.80;;
77524;SDS011;66638;50.050;21.124;2023-03-05T04:40:46;8.50;;;4.80;;
77524;SDS011;66638;50.050;21.124;2023-03-05T04:43:34;12.10;;;4.80;;
77524;SDS011;66638;50.050;21.124;2023-03-05T04:46:21;8.70;;;4.30;;
77524;SDS011;66638;50.050;21.124;2023-03-05T04:49:08;13.30;;;5.00;;
77524;SDS011;66638;50.050;21.124;2023-03-05T04:51:55;9.60;;;4.90;;
77524;SDS011;66638;50.050;21.124;2023-03-05T04:54:43;8.90;;;4.40;;
77524;SDS011;66638;50.050;21.124;2023-03-05T04:57:31;11.30;;;4.60;;
77524;SDS011;66638;50.050;21.124;2023-03-05T05:00:18;8.70;;;4.70;;
77524;SDS011;66638;50.050;21.124;2023-03-05T05:05:53;12.20;;;5.10;;
77524;SDS011;66638;50.050;21.124;2023-03-05T05:08:41;8.20;;;4.00;;
77524;SDS011;66638;50.050;21.124;2023-03-05T05:11:29;9.10;;;3.80;;
77524;SDS011;66638;50.050;21.124;2023-03-05T05:17:04;9.00;;;4.00;;
77524;SDS011;66638;50.050;21.124;2023-03-05T05:19:51;8.50;;;4.00;;
77524;SDS011;66638;50.050;21.124;2023-03-05T05:22:39;10.90;;;5.30;;
77524;SDS011;66638;50.050;21.124;2023-03-05T05:25:26;10.90;;;5.30;;
77524;SDS011;66638;50.050;21.124;2023-03-05T05:28:13;8.70;;;4.70;;
77524;SDS011;66638;50.050;21.124;2023-03-05T05:31:05;8.00;;;4.00;;
77524;SDS011;66638;50.050;21.124;2023-03-05T05:33:53;7.40;;;3.70;;
77524;SDS011;66638;50.050;21.124;2023-03-05T05:36:40;11.80;;;4.60;;
77524;SDS011;66638;50.050;21.124;2023-03-05T05:39:27;20.70;;;9.40;;
77524;SDS011;66638;50.050;21.124;2023-03-05T05:42:15;10.10;;;5.30;;
77524;SDS011;66638;50.050;21.124;2023-03-05T05:45:03;12.70;;;5.30;;
77524;SDS011;66638;50.050;21.124;2023-03-05T05:47:51;16.30;;;5.90;;
77524;SDS011;66638;50.050;21.124;2023-03-05T05:50:39;16.70;;;6.60;;
77524;SDS011;66638;50.050;21.124;2023-03-05T05:53:26;15.80;;;7.10;;
77524;SDS011;66638;50.050;21.124;2023-03-05T05:56:14;13.20;;;5.70;;
77524;SDS011;66638;50.050;21.124;2023-03-05T05:59:02;9.70;;;4.50;;
77524;SDS011;66638;50.050;21.124;2023-03-05T06:01:49;14.10;;;6.50;;
77524;SDS011;66638;50.050;21.124;2023-03-05T06:04:37;42.00;;;18.10;;
77524;SDS011;66638;50.050;21.124;2023-03-05T06:07:26;32.80;;;20.50;;
77524;SDS011;66638;50.050;21.124;2023-03-05T06:10:13;15.90;;;9.70;;
77524;SDS011;66638;50.050;21.124;2023-03-05T06:13:00;12.30;;;6.20;;
77524;SDS011;66638;50.050;21.124;2023-03-05T06:15:55;15.00;;;6.40;;
77524;SDS011;66638;50.050;21.124;2023-03-05T06:18:43;12.40;;;6.30;;
77524;SDS011;66638;50.050;21.124;2023-03-05T06:21:30;11.40;;;4.80;;
77524;SDS011;66638;50.050;21.124;2023-03-05T06:24:18;11.90;;;5.30;;
77524;SDS011;66638;50.050;21.124;2023-03-05T06:27:06;15.90;;;6.70;;
77524;SDS011;66638;50.050;21.124;2023-03-05T06:29:53;10.60;;;5.20;;
77524;SDS011;66638;50.050;21.124;2023-03-05T06:32:42;11.60;;;5.10;;
77524;SDS011;66638;50.050;21.124;2023-03-05T06:35:30;13.40;;;5.10;;
77524;SDS011;66638;50.050;21.124;2023-03-05T06:38:17;11.40;;;4.00;;
77524;SDS011;66638;50.050;21.124;2023-03-05T06:41:05;27.90;;;11.60;;
77524;SDS011;66638;50.050;21.124;2023-03-05T06:44:00;12.20;;;6.00;;
77524;SDS011;66638;50.050;21.124;2023-03-05T06:46:48;15.70;;;7.00;;
77524;SDS011;66638;50.050;21.124;2023-03-05T06:49:36;12.60;;;4.80;;
77524;SDS011;66638;50.050;21.124;2023-03-05T06:52:24;9.00;;;4.20;;
77524;SDS011;66638;50.050;21.124;2023-03-05T06:55:12;12.10;;;4.70;;
77524;SDS011;66638;50.050;21.124;2023-03-05T06:57:59;7.60;;;4.00;;
77524;SDS011;66638;50.050;21.124;2023-03-05T07:00:46;7.90;;;3.30;;
77524;SDS011;66638;50.050;21.124;2023-03-05T07:03:35;12.50;;;4.50;;
77524;SDS011;66638;50.050;21.124;2023-03-05T07:06:22;13.70;;;5.30;;
77524;SDS011;66638;50.050;21.124;2023-03-05T07:09:12;8.50;;;4.20;;
77524;SDS011;66638;50.050;21.124;2023-03-05T07:12:00;9.00;;;3.60;;
77524;SDS011;66638;50.050;21.124;2023-03-05T07:14:48;14.60;;;5.70;;
77524;SDS011;66638;50.050;21.124;2023-03-05T07:20:23;8.10;;;4.00;;
77524;SDS011;66638;50.050;21.124;2023-03-05T07:23:10;8.90;;;4.80;;
77524;SDS011;66638;50.050;21.124;2023-03-05T07:25:59;8.00;;;4.40;;
77524;SDS011;66638;50.050;21.124;2023-03-05T07:28:47;9.60;;;4.00;;
77524;SDS011;66638;50.050;21.124;2023-03-05T07:31:35;11.80;;;5.00;;
77524;SDS011;66638;50.050;21.124;2023-03-05T07:34:22;8.70;;;4.20;;
77524;SDS011;66638;50.050;21.124;2023-03-05T07:37:10;14.50;;;5.50;;
77524;SDS011;66638;50.050;21.124;2023-03-05T07:42:44;19.50;;;8.40;;
77524;SDS011;66638;50.050;21.124;2023-03-05T07:45:38;8.40;;;4.50;;
77524;SDS011;66638;50.050;21.124;2023-03-05T07:48:27;9.90;;;5.50;;
77524;SDS011;66638;50.050;21.124;2023-03-05T07:54:03;10.00;;;5.30;;
77524;SDS011;66638;50.050;21.124;2023-03-05T07:56:50;15.20;;;8.30;;
77524;SDS011;66638;50.050;21.124;2023-03-05T07:59:40;14.90;;;7.70;;
77524;SDS011;66638;50.050;21.124;2023-03-05T08:02:29;21.40;;;10.40;;
77524;SDS011;66638;50.050;21.124;2023-03-05T08:05:16;26.40;;;12.50;;
77524;SDS011;66638;50.050;21.124;2023-03-05T08:08:04;16.10;;;7.50;;
77524;SDS011;66638;50.050;21.124;2023-03-05T08:10:52;21.00;;;11.10;;
77524;SDS011;66638;50.050;21.124;2023-03-05T08:13:39;13.30;;;8.30;;
77524;SDS011;66638;50.050;21.124;2023-03-05T08:16:27;20.50;;;11.70;;
77524;SDS011;66638;50.050;21.124;2023-03-05T08:19:15;16.80;;;7.60;;
77524;SDS011;66638;50.050;21.124;2023-03-05T08:24:49;15.90;;;7.90;;
77524;SDS011;66638;50.050;21.124;2023-03-05T08:27:41;18.30;;;12.30;;
77524;SDS011;66638;50.050;21.124;2023-03-05T08:30:30;16.80;;;7.80;;
77524;SDS011;66638;50.050;21.124;2023-03-05T08:33:17;11.20;;;6.70;;
77524;SDS011;66638;50.050;21.124;2023-03-05T08:36:04;18.00;;;12.90;;
77524;SDS011;66638;50.050;21.124;2023-03-05T08:38:53;14.00;;;8.00;;
77524;SDS011;66638;50.050;21.124;2023-03-05T08:41:42;12.60;;;7.40;;
77524;SDS011;66638;50.050;21.124;2023-03-05T08:44:29;21.40;;;13.80;;
77524;SDS011;66638;50.050;21.124;2023-03-05T08:47:17;10.60;;;6.90;;
77524;SDS011;66638;50.050;21.124;2023-03-05T08:50:06;15.50;;;7.90;;
77524;SDS011;66638;50.050;21.124;2023-03-05T08:52:54;11.90;;;6.00;;
77524;SDS011;66638;50.050;21.124;2023-03-05T08:55:42;16.20;;;7.00;;
77524;SDS011;66638;50.050;21.124;2023-03-05T08:58:30;11.20;;;6.80;;
77524;SDS011;66638;50.050;21.124;2023-03-05T09:01:19;14.80;;;6.00;;
77524;SDS011;66638;50.050;21.124;2023-03-05T09:04:06;19.70;;;8.60;;
77524;SDS011;66638;50.050;21.124;2023-03-05T09:06:54;21.10;;;9.90;;
77524;SDS011;66638;50.050;21.124;2023-03-05T09:09:42;16.50;;;10.00;;
77524;SDS011;66638;50.050;21.124;2023-03-05T09:12:29;13.80;;;8.00;;
77524;SDS011;66638;50.050;21.124;2023-03-05T09:15:17;12.50;;;7.10;;
77524;SDS011;66638;50.050;21.124;2023-03-05T09:18:04;13.10;;;6.50;;
77524;SDS011;66638;50.050;21.124;2023-03-05T09:20:55;14.10;;;8.30;;
77524;SDS011;66638;50.050;21.124;2023-03-05T09:23:43;15.30;;;8.30;;
77524;SDS011;66638;50.050;21.124;2023-03-05T09:26:30;14.80;;;8.30;;
77524;SDS011;66638;50.050;21.124;2023-03-05T09:29:17;13.70;;;8.20;;
77524;SDS011;66638;50.050;21.124;2023-03-05T09:32:05;16.00;;;8.10;;
77524;SDS011;66638;50.050;21.124;2023-03-05T09:34:52;11.40;;;6.90;;
77524;SDS011;66638;50.050;21.124;2023-03-05T09:37:40;15.20;;;7.90;;
77524;SDS011;66638;50.050;21.124;2023-03-05T09:40:29;11.40;;;6.40;;
77524;SDS011;66638;50.050;21.124;2023-03-05T09:43:24;15.10;;;8.20;;
77524;SDS011;66638;50.050;21.124;2023-03-05T09:46:30;14.30;;;8.40;;
77524;SDS011;66638;50.050;21.124;2023-03-05T09:49:32;15.70;;;8.30;;
77524;SDS011;66638;50.050;21.124;2023-03-05T09:52:40;11.40;;;7.70;;
77524;SDS011;66638;50.050;21.124;2023-03-05T09:55:37;13.00;;;7.40;;
77524;SDS011;66638;50.050;21.124;2023-03-05T09:58:32;13.30;;;7.30;;
77524;SDS011;66638;50.050;21.124;2023-03-05T10:01:33;12.60;;;7.30;;
77524;SDS011;66638;50.050;21.124;2023-03-05T10:04:37;11.20;;;6.40;;
77524;SDS011;66638;50.050;21.124;2023-03-05T10:07:31;10.60;;;6.80;;
77524;SDS011;66638;50.050;21.124;2023-03-05T10:10:22;15.10;;;9.10;;
77524;SDS011;66638;50.050;21.124;2023-03-05T10:13:15;17.00;;;7.60;;
77524;SDS011;66638;50.050;21.124;2023-03-05T10:16:23;12.50;;;6.80;;
77524;SDS011;66638;50.050;21.124;2023-03-05T10:32:52;9.90;;;6.30;;
77524;SDS011;66638;50.050;21.124;2023-03-05T10:45:38;11.10;;;6.20;;
77524;SDS011;66638;50.050;21.124;2023-03-05T10:48:37;9.80;;;5.60;;
77524;SDS011;66638;50.050;21.124;2023-03-05T10:51:33;13.40;;;5.80;;
77524;SDS011;66638;50.050;21.124;2023-03-05T10:54:28;8.80;;;5.40;;
77524;SDS011;66638;50.050;21.124;2023-03-05T10:57:18;18.20;;;8.70;;
77524;SDS011;66638;50.050;21.124;2023-03-05T11:00:26;11.70;;;6.70;;
77524;SDS011;66638;50.050;21.124;2023-03-05T11:03:14;12.20;;;6.50;;
77524;SDS011;66638;50.050;21.124;2023-03-05T11:06:02;11.60;;;6.30;;
77524;SDS011;66638;50.050;21.124;2023-03-05T11:08:49;12.70;;;5.90;;
77524;SDS011;66638;50.050;21.124;2023-03-05T11:11:36;7.70;;;4.50;;
77524;SDS011;66638;50.050;21.124;2023-03-05T11:14:26;13.10;;;6.80;;
77524;SDS011;66638;50.050;21.124;2023-03-05T11:17:27;9.80;;;6.20;;
77524;SDS011;66638;50.050;21.124;2023-03-05T11:20:30;10.40;;;5.10;;
77524;SDS011;66638;50.050;21.124;2023-03-05T11:23:23;9.80;;;5.70;;
77524;SDS011;66638;50.050;21.124;2023-03-05T11:26:18;9.80;;;4.90;;
77524;SDS011;66638;50.050;21.124;2023-03-05T11:29:14;11.40;;;5.60;;
77524;SDS011;66638;50.050;21.124;2023-03-05T11:38:22;8.70;;;5.00;;
77524;SDS011;66638;50.050;21.124;2023-03-05T11:41:12;18.00;;;8.00;;
77524;SDS011;66638;50.050;21.124;2023-03-05T11:44:00;15.10;;;9.00;;
77524;SDS011;66638;50.050;21.124;2023-03-05T11:46:50;13.40;;;7.40;;
77524;SDS011;66638;50.050;21.124;2023-03-05T11:49:40;22.90;;;10.50;;
77524;SDS011;66638;50.050;21.124;2023-03-05T11:52:39;21.30;;;8.90;;
77524;SDS011;66638;50.050;21.124;2023-03-05T11:55:33;16.50;;;8.90;;
77524;SDS011;66638;50.050;21.124;2023-03-05T11:58:31;26.10;;;11.50;;
77524;SDS011;66638;50.050;21.124;2023-03-05T12:01:22;20.00;;;8.80;;
77524;SDS011;66638;50.050;21.124;2023-03-05T12:04:11;24.40;;;10.30;;
77524;SDS011;66638;50.050;21.124;2023-03-05T12:09:50;25.00;;;10.90;;
77524;SDS011;66638;50.050;21.124;2023-03-05T12:12:47;21.30;;;10.00;;
77524;SDS011;66638;50.050;21.124;2023-03-05T12:15:56;17.10;;;7.50;;
77524;SDS011;66638;50.050;21.124;2023-03-05T12:22:21;23.00;;;9.30;;
77524;SDS011;66638;50.050;21.124;2023-03-05T12:31:37;44.40;;;17.90;;
77524;SDS011;66638;50.050;21.124;2023-03-05T12:40:44;30.80;;;14.20;;
77524;SDS011;66638;50.050;21.124;2023-03-05T12:46:26;13.60;;;8.80;;
77524;SDS011;66638;50.050;21.124;2023-03-05T12:52:25;19.00;;;9.70;;
77524;SDS011;66638;50.050;21.124;2023-03-05T12:58:42;20.00;;;9.90;;
77524;SDS011;66638;50.050;21.124;2023-03-05T13:01:33;26.50;;;13.20;;
77524;SDS011;66638;50.050;21.124;2023-03-05T13:04:42;27.30;;;14.70;;
77524;SDS011;66638;50.050;21.124;2023-03-05T13:07:30;28.00;;;12.80;;
77524;SDS011;66638;50.050;21.124;2023-03-05T13:10:23;25.80;;;12.70;;
77524;SDS011;66638;50.050;21.124;2023-03-05T13:13:13;27.80;;;13.70;;
77524;SDS011;66638;50.050;21.124;2023-03-05T13:16:03;21.50;;;12.90;;
77524;SDS011;66638;50.050;21.124;2023-03-05T13:18:51;15.60;;;9.10;;
77524;SDS011;66638;50.050;21.124;2023-03-05T13:21:40;17.40;;;9.60;;
77524;SDS011;66638;50.050;21.124;2023-03-05T13:24:29;20.60;;;9.80;;
77524;SDS011;66638;50.050;21.124;2023-03-05T13:30:25;6.40;;;4.50;;
77524;SDS011;66638;50.050;21.124;2023-03-05T13:33:15;15.40;;;6.60;;
77524;SDS011;66638;50.050;21.124;2023-03-05T13:36:13;13.10;;;7.60;;
77524;SDS011;66638;50.050;21.124;2023-03-05T13:39:14;11.70;;;6.60;;
77524;SDS011;66638;50.050;21.124;2023-03-05T13:42:15;11.80;;;7.30;;
77524;SDS011;66638;50.050;21.124;2023-03-05T13:48:18;13.00;;;6.20;;
77524;SDS011;66638;50.050;21.124;2023-03-05T13:51:08;13.10;;;7.30;;
77524;SDS011;66638;50.050;21.124;2023-03-05T13:54:03;15.80;;;9.30;;
77524;SDS011;66638;50.050;21.124;2023-03-05T13:56:56;15.10;;;7.10;;
77524;SDS011;66638;50.050;21.124;2023-03-05T13:59:50;19.50;;;11.10;;
77524;SDS011;66638;50.050;21.124;2023-03-05T14:02:43;15.80;;;9.50;;
77524;SDS011;66638;50.050;21.124;2023-03-05T14:05:42;14.80;;;9.10;;
77524;SDS011;66638;50.050;21.124;2023-03-05T14:08:42;16.60;;;10.00;;
77524;SDS011;66638;50.050;21.124;2023-03-05T14:11:59;16.70;;;9.10;;
77524;SDS011;66638;50.050;21.124;2023-03-05T14:14:51;17.00;;;8.30;;
77524;SDS011;66638;50.050;21.124;2023-03-05T14:17:45;14.00;;;8.90;;
77524;SDS011;66638;50.050;21.124;2023-03-05T14:21:41;16.80;;;9.50;;
77524;SDS011;66638;50.050;21.124;2023-03-05T14:24:53;24.50;;;12.80;;
77524;SDS011;66638;50.050;21.124;2023-03-05T14:27:40;28.50;;;16.80;;
77524;SDS011;66638;50.050;21.124;2023-03-05T14:30:28;23.50;;;13.40;;
77524;SDS011;66638;50.050;21.124;2023-03-05T14:33:23;25.20;;;14.10;;
77524;SDS011;66638;50.050;21.124;2023-03-05T14:36:18;19.80;;;11.10;;
77524;SDS011;66638;50.050;21.124;2023-03-05T14:39:21;22.90;;;12.70;;
77524;SDS011;66638;50.050;21.124;2023-03-05T14:45:25;20.50;;;12.10;;
77524;SDS011;66638;50.050;21.124;2023-03-05T14:48:33;25.80;;;12.20;;
77524;SDS011;66638;50.050;21.124;2023-03-05T14:51:21;26.90;;;14.60;;
77524;SDS011;66638;50.050;21.124;2023-03-05T14:54:17;28.50;;;16.30;;
77524;SDS011;66638;50.050;21.124;2023-03-05T14:57:06;26.50;;;13.90;;
77524;SDS011;66638;50.050;21.124;2023-03-05T15:00:09;40.00;;;21.80;;
77524;SDS011;66638;50.050;21.124;2023-03-05T15:03:05;25.70;;;14.00;;
77524;SDS011;66638;50.050;21.124;2023-03-05T15:05:54;25.80;;;15.50;;
77524;SDS011;66638;50.050;21.124;2023-03-05T15:08:44;27.40;;;16.60;;
77524;SDS011;66638;50.050;21.124;2023-03-05T15:11:32;27.60;;;16.60;;
77524;SDS011;66638;50.050;21.124;2023-03-05T15:14:21;17.60;;;9.50;;
77524;SDS011;66638;50.050;21.124;2023-03-05T15:17:13;24.10;;;12.30;;
77524;SDS011;66638;50.050;21.124;2023-03-05T15:20:05;21.00;;;10.80;;
77524;SDS011;66638;50.050;21.124;2023-03-05T15:22:57;24.00;;;11.60;;
77524;SDS011;66638;50.050;21.124;2023-03-05T15:25:44;21.60;;;11.00;;
77524;SDS011;66638;50.050;21.124;2023-03-05T15:28:32;27.30;;;13.80;;
77524;SDS011;66638;50.050;21.124;2023-03-05T15:31:24;13.90;;;8.80;;
77524;SDS011;66638;50.050;21.124;2023-03-05T15:34:12;21.50;;;10.40;;
77524;SDS011;66638;50.050;21.124;2023-03-05T15:37:00;23.10;;;10.20;;
77524;SDS011;66638;50.050;21.124;2023-03-05T15:39:48;18.80;;;9.70;;
77524;SDS011;66638;50.050;21.124;2023-03-05T15:42:35;23.60;;;11.20;;
77524;SDS011;66638;50.050;21.124;2023-03-05T15:45:23;19.90;;;11.60;;
77524;SDS011;66638;50.050;21.124;2023-03-05T15:48:11;21.30;;;10.70;;
77524;SDS011;66638;50.050;21.124;2023-03-05T15:53:46;19.10;;;10.20;;
77524;SDS011;66638;50.050;21.124;2023-03-05T15:56:33;11.90;;;6.20;;
77524;SDS011;66638;50.050;21.124;2023-03-05T15:59:20;18.90;;;11.10;;
77524;SDS011;66638;50.050;21.124;2023-03-05T16:02:07;17.50;;;9.30;;
77524;SDS011;66638;50.050;21.124;2023-03-05T16:08:20;19.40;;;11.00;;
77524;SDS011;66638;50.050;21.124;2023-03-05T16:11:07;22.40;;;10.50;;
77524;SDS011;66638;50.050;21.124;2023-03-05T16:13:56;17.80;;;9.60;;
77524;SDS011;66638;50.050;21.124;2023-03-05T16:16:47;19.70;;;10.20;;
77524;SDS011;66638;50.050;21.124;2023-03-05T16:22:22;17.90;;;10.00;;
77524;SDS011;66638;50.050;21.124;2023-03-05T16:25:09;19.40;;;9.70;;
77524;SDS011;66638;50.050;21.124;2023-03-05T16:27:56;21.60;;;10.20;;
77524;SDS011;66638;50.050;21.124;2023-03-05T16:30:44;21.80;;;10.70;;
77524;SDS011;66638;50.050;21.124;2023-03-05T16:33:38;17.30;;;10.20;;
77524;SDS011;66638;50.050;21.124;2023-03-05T16:36:27;22.30;;;10.60;;
77524;SDS011;66638;50.050;21.124;2023-03-05T16:39:15;24.50;;;11.50;;
77524;SDS011;66638;50.050;21.124;2023-03-05T16:42:02;21.00;;;9.10;;
77524;SDS011;66638;50.050;21.124;2023-03-05T16:44:50;24.80;;;11.40;;
77524;SDS011;66638;50.050;21.124;2023-03-05T16:47:38;30.60;;;13.90;;
77524;SDS011;66638;50.050;21.124;2023-03-05T16:50:26;19.00;;;9.40;;
77524;SDS011;66638;50.050;21.124;2023-03-05T16:53:13;23.10;;;12.00;;
77524;SDS011;66638;50.050;21.124;2023-03-05T16:56:01;21.50;;;12.70;;
77524;SDS011;66638;50.050;21.124;2023-03-05T16:58:49;15.50;;;8.70;;
77524;SDS011;66638;50.050;21.124;2023-03-05T17:01:36;20.40;;;10.60;;
77524;SDS011;66638;50.050;21.124;2023-03-05T17:04:24;25.60;;;13.20;;
77524;SDS011;66638;50.050;21.124;2023-03-05T17:07:11;25.30;;;12.40;;
77524;SDS011;66638;50.050;21.124;2023-03-05T17:09:59;29.20;;;14.00;;
77524;SDS011;66638;50.050;21.124;2023-03-05T17:12:49;31.50;;;16.00;;
77524;SDS011;66638;50.050;21.124;2023-03-05T17:15:40;50.10;;;31.20;;
77524;SDS011;66638;50.050;21.124;2023-03-05T17:18:27;22.60;;;13.20;;
77524;SDS011;66638;50.050;21.124;2023-03-05T17:24:02;24.10;;;13.70;;
77524;SDS011;66638;50.050;21.124;2023-03-05T17:26:49;24.40;;;10.50;;
77524;SDS011;66638;50.050;21.124;2023-03-05T17:29:36;17.70;;;9.90;;
77524;SDS011;66638;50.050;21.124;2023-03-05T17:32:24;17.70;;;9.00;;
77524;SDS011;66638;50.050;21.124;2023-03-05T17:35:16;18.20;;;8.30;;
77524;SDS011;66638;50.050;21.124;2023-03-05T17:38:05;17.30;;;7.60;;
77524;SDS011;66638;50.050;21.124;2023-03-05T17:40:53;14.10;;;7.10;;
77524;SDS011;66638;50.050;21.124;2023-03-05T17:46:28;21.20;;;8.90;;
77524;SDS011;66638;50.050;21.124;2023-03-05T17:49:16;10.20;;;5.50;;
77524;SDS011;66638;50.050;21.124;2023-03-05T17:52:03;14.70;;;7.40;;
77524;SDS011;66638;50.050;21.124;2023-03-05T17:57:39;16.80;;;9.20;;
77524;SDS011;66638;50.050;21.124;2023-03-05T18:00:28;17.40;;;10.50;;
77524;SDS011;66638;50.050;21.124;2023-03-05T18:03:16;17.20;;;9.60;;
77524;SDS011;66638;50.050;21.124;2023-03-05T18:06:04;15.00;;;7.60;;
77524;SDS011;66638;50.050;21.124;2023-03-05T18:08:52;15.20;;;8.00;;
77524;SDS011;66638;50.050;21.124;2023-03-05T18:11:43;17.40;;;7.60;;
77524;SDS011;66638;50.050;21.124;2023-03-05T18:14:31;14.80;;;8.00;;
77524;SDS011;66638;50.050;21.124;2023-03-05T18:17:19;12.90;;;7.10;;
77524;SDS011;66638;50.050;21.124;2023-03-05T18:20:09;25.50;;;10.10;;
77524;SDS011;66638;50.050;21.124;2023-03-05T18:23:14;18.40;;;8.20;;
77524;SDS011;66638;50.050;21.124;2023-03-05T18:26:01;19.90;;;9.60;;
77524;SDS011;66638;50.050;21.124;2023-03-05T18:28:48;13.20;;;8.20;;
77524;SDS011;66638;50.050;21.124;2023-03-05T18:31:36;17.60;;;9.00;;
77524;SDS011;66638;50.050;21.124;2023-03-05T18:34:23;25.70;;;12.10;;
77524;SDS011;66638;50.050;21.124;2023-03-05T18:37:11;27.60;;;12.90;;
77524;SDS011;66638;50.050;21.124;2023-03-05T18:39:58;22.90;;;11.70;;
77524;SDS011;66638;50.050;21.124;2023-03-05T18:42:46;26.70;;;12.40;;
77524;SDS011;66638;50.050;21.124;2023-03-05T18:45:34;15.50;;;9.00;;